Terminal Aerodrome Forecast
Issued by NWS

Home | Current Version | Previous Version | Text Only | Print | Product List | Glossary On
Versions: 1 2 3 4 5 6 7 8 9 10 11 12 13 14 15 16 17 18 19 20 21 22 23 24 25 26 27 28 29 30 31 32 33 34 35 36 37 38 39
843
FTUS46 KLOX 261940 AAA
TAFLAX
TAF AMD
KLAX 261940Z 2620/2724 26012KT P6SM SKC
     FM270200 26010KT P6SM OVC015
     FM270800 VRB03KT P6SM OVC020
     FM271700 26007KT P6SM OVC025
     FM271900 26012KT P6SM SCT027=

USA.gov is the U.S. government's official web portal to all federal, state and local government web resources and services.